sensor_id;sensor_type;location;lat;lon;timestamp;pressure;altitude;pressure_sealevel;temperature;humidity
54588;BME280;40484;50.198;19.576;2023-03-25T00:04:05;100593.91;;;16.05;51.00
54588;BME280;40484;50.198;19.576;2023-03-25T00:09:06;100579.34;;;16.16;50.82
54588;BME280;40484;50.198;19.576;2023-03-25T00:14:08;100575.15;;;16.17;50.79
54588;BME280;40484;50.198;19.576;2023-03-25T00:19:11;100577.05;;;16.23;50.73
54588;BME280;40484;50.198;19.576;2023-03-25T00:24:13;100580.50;;;16.34;50.38
54588;BME280;40484;50.198;19.576;2023-03-25T00:29:18;100582.85;;;16.10;50.99
54588;BME280;40484;50.198;19.576;2023-03-25T00:34:19;100571.80;;;16.08;51.12
54588;BME280;40484;50.198;19.576;2023-03-25T00:39:21;100577.30;;;16.06;51.11
54588;BME280;40484;50.198;19.576;2023-03-25T00:44:22;100573.65;;;16.02;51.38
54588;BME280;40484;50.198;19.576;2023-03-25T00:49:24;100573.78;;;15.97;51.59
54588;BME280;40484;50.198;19.576;2023-03-25T00:54:25;100585.14;;;16.03;51.36
54588;BME280;40484;50.198;19.576;2023-03-25T00:59:27;100577.64;;;15.77;52.07
54588;BME280;40484;50.198;19.576;2023-03-25T01:04:28;100590.43;;;16.01;51.53
54588;BME280;40484;50.198;19.576;2023-03-25T01:09:29;100577.77;;;15.96;51.71
54588;BME280;40484;50.198;19.576;2023-03-25T01:14:31;100588.32;;;15.77;52.35
54588;BME280;40484;50.198;19.576;2023-03-25T01:19:33;100572.91;;;15.82;52.45
54588;BME280;40484;50.198;19.576;2023-03-25T01:24:34;100560.72;;;15.75;52.80
54588;BME280;40484;50.198;19.576;2023-03-25T01:29:36;100556.22;;;15.78;52.84
54588;BME280;40484;50.198;19.576;2023-03-25T01:34:37;100546.12;;;15.55;53.68
54588;BME280;40484;50.198;19.576;2023-03-25T01:40:05;100531.23;;;15.97;52.71
54588;BME280;40484;50.198;19.576;2023-03-25T01:45:23;100557.33;;;15.93;53.06
54588;BME280;40484;50.198;19.576;2023-03-25T01:50:23;100548.70;;;15.61;54.15
54588;BME280;40484;50.198;19.576;2023-03-25T01:55:28;100546.96;;;15.72;54.03
54588;BME280;40484;50.198;19.576;2023-03-25T02:00:31;100548.34;;;15.84;53.77
54588;BME280;40484;50.198;19.576;2023-03-25T02:05:38;100547.09;;;15.91;53.65
54588;BME280;40484;50.198;19.576;2023-03-25T02:10:39;100545.00;;;15.83;54.05
54588;BME280;40484;50.198;19.576;2023-03-25T02:21:24;100549.55;;;15.52;54.18
54588;BME280;40484;50.198;19.576;2023-03-25T02:26:39;100537.69;;;15.39;53.64
54588;BME280;40484;50.198;19.576;2023-03-25T02:37:16;100547.20;;;15.45;50.28
54588;BME280;40484;50.198;19.576;2023-03-25T02:42:34;100550.13;;;15.37;49.38
54588;BME280;40484;50.198;19.576;2023-03-25T02:47:38;100558.13;;;15.34;49.45
54588;BME280;40484;50.198;19.576;2023-03-25T02:52:46;100556.73;;;15.41;49.60
54588;BME280;40484;50.198;19.576;2023-03-25T02:57:50;100543.72;;;15.15;49.78
54588;BME280;40484;50.198;19.576;2023-03-25T03:02:58;100549.46;;;15.11;49.63
54588;BME280;40484;50.198;19.576;2023-03-25T03:08:22;100564.30;;;14.94;49.14
54588;BME280;40484;50.198;19.576;2023-03-25T03:19:06;100553.04;;;15.02;48.08
54588;BME280;40484;50.198;19.576;2023-03-25T03:24:21;100570.18;;;15.12;47.57
54588;BME280;40484;50.198;19.576;2023-03-25T03:29:31;100576.45;;;14.84;47.69
54588;BME280;40484;50.198;19.576;2023-03-25T03:34:32;100591.84;;;14.68;48.31
54588;BME280;40484;50.198;19.576;2023-03-25T03:39:37;100603.67;;;14.39;49.79
54588;BME280;40484;50.198;19.576;2023-03-25T03:44:40;100603.23;;;14.31;50.41
54588;BME280;40484;50.198;19.576;2023-03-25T03:49:47;100601.34;;;13.83;51.99
54588;BME280;40484;50.198;19.576;2023-03-25T03:54:59;100610.09;;;13.73;52.55
54588;BME280;40484;50.198;19.576;2023-03-25T04:00:06;100604.14;;;13.67;53.16
54588;BME280;40484;50.198;19.576;2023-03-25T04:05:08;100618.12;;;13.81;53.20
54588;BME280;40484;50.198;19.576;2023-03-25T04:15:41;100601.35;;;14.07;53.08
54588;BME280;40484;50.198;19.576;2023-03-25T04:20:43;100604.52;;;14.06;53.22
54588;BME280;40484;50.198;19.576;2023-03-25T04:25:47;100604.30;;;13.93;53.55
54588;BME280;40484;50.198;19.576;2023-03-25T04:30:55;100599.87;;;13.85;53.51
54588;BME280;40484;50.198;19.576;2023-03-25T04:35:58;100600.59;;;13.79;53.57
54588;BME280;40484;50.198;19.576;2023-03-25T04:41:01;100603.95;;;13.90;53.24
54588;BME280;40484;50.198;19.576;2023-03-25T04:46:05;100616.26;;;13.66;53.82
54588;BME280;40484;50.198;19.576;2023-03-25T04:51:07;100619.35;;;13.82;53.39
54588;BME280;40484;50.198;19.576;2023-03-25T04:56:12;100616.53;;;13.87;53.35
54588;BME280;40484;50.198;19.576;2023-03-25T05:01:23;100626.52;;;13.91;52.95
54588;BME280;40484;50.198;19.576;2023-03-25T05:06:22;100629.32;;;14.10;52.42
54588;BME280;40484;50.198;19.576;2023-03-25T05:11:23;100638.48;;;13.87;52.59
54588;BME280;40484;50.198;19.576;2023-03-25T05:16:25;100633.82;;;13.77;52.68
54588;BME280;40484;50.198;19.576;2023-03-25T05:21:26;100645.41;;;13.96;52.41
54588;BME280;40484;50.198;19.576;2023-03-25T05:26:28;100646.62;;;14.01;52.30
54588;BME280;40484;50.198;19.576;2023-03-25T05:31:31;100658.80;;;14.09;52.02
54588;BME280;40484;50.198;19.576;2023-03-25T05:36:33;100666.25;;;14.12;51.94
54588;BME280;40484;50.198;19.576;2023-03-25T05:42:00;100661.62;;;14.14;51.98
54588;BME280;40484;50.198;19.576;2023-03-25T05:47:03;100669.80;;;14.13;52.02
54588;BME280;40484;50.198;19.576;2023-03-25T05:52:04;100676.24;;;14.14;51.99
54588;BME280;40484;50.198;19.576;2023-03-25T05:57:08;100673.01;;;14.21;51.93
54588;BME280;40484;50.198;19.576;2023-03-25T06:02:14;100665.53;;;14.29;51.80
54588;BME280;40484;50.198;19.576;2023-03-25T06:07:16;100661.03;;;14.13;52.17
54588;BME280;40484;50.198;19.576;2023-03-25T06:12:22;100651.12;;;14.05;52.55
54588;BME280;40484;50.198;19.576;2023-03-25T06:17:26;100669.99;;;14.14;52.49
54588;BME280;40484;50.198;19.576;2023-03-25T06:22:27;100684.61;;;14.28;51.88
54588;BME280;40484;50.198;19.576;2023-03-25T06:27:29;100695.62;;;13.81;52.55
54588;BME280;40484;50.198;19.576;2023-03-25T06:32:32;100703.28;;;13.85;52.78
54588;BME280;40484;50.198;19.576;2023-03-25T06:37:35;100707.63;;;13.73;52.96
54588;BME280;40484;50.198;19.576;2023-03-25T06:42:37;100691.37;;;13.84;52.93
54588;BME280;40484;50.198;19.576;2023-03-25T06:47:38;100695.92;;;13.75;53.55
54588;BME280;40484;50.198;19.576;2023-03-25T06:52:40;100699.73;;;13.84;53.26
54588;BME280;40484;50.198;19.576;2023-03-25T06:57:41;100714.30;;;13.74;53.16
54588;BME280;40484;50.198;19.576;2023-03-25T07:02:43;100713.91;;;13.72;52.93
54588;BME280;40484;50.198;19.576;2023-03-25T07:07:44;100701.48;;;14.06;52.48
54588;BME280;40484;50.198;19.576;2023-03-25T07:12:46;100701.40;;;13.96;52.15
54588;BME280;40484;50.198;19.576;2023-03-25T07:18:12;100695.67;;;14.28;51.55
54588;BME280;40484;50.198;19.576;2023-03-25T07:23:13;100685.52;;;14.58;51.12
54588;BME280;40484;50.198;19.576;2023-03-25T07:28:15;100683.73;;;14.64;50.70
54588;BME280;40484;50.198;19.576;2023-03-25T07:33:16;100678.27;;;14.66;50.31
54588;BME280;40484;50.198;19.576;2023-03-25T07:38:18;100675.69;;;14.47;51.11
54588;BME280;40484;50.198;19.576;2023-03-25T07:43:19;100664.86;;;14.67;50.61
54588;BME280;40484;50.198;19.576;2023-03-25T07:48:21;100666.56;;;14.66;49.99
54588;BME280;40484;50.198;19.576;2023-03-25T07:53:22;100665.03;;;14.58;50.62
54588;BME280;40484;50.198;19.576;2023-03-25T07:58:24;100673.40;;;14.58;50.68
54588;BME280;40484;50.198;19.576;2023-03-25T08:03:26;100662.30;;;14.46;51.39
54588;BME280;40484;50.198;19.576;2023-03-25T08:08:28;100664.94;;;14.73;50.98
54588;BME280;40484;50.198;19.576;2023-03-25T08:13:30;100660.56;;;15.13;51.25
54588;BME280;40484;50.198;19.576;2023-03-25T08:18:32;100665.74;;;14.76;50.76
54588;BME280;40484;50.198;19.576;2023-03-25T08:23:33;100659.47;;;15.25;49.71
54588;BME280;40484;50.198;19.576;2023-03-25T08:28:36;100664.22;;;14.68;51.45
54588;BME280;40484;50.198;19.576;2023-03-25T08:33:38;100650.94;;;15.23;49.91
54588;BME280;40484;50.198;19.576;2023-03-25T08:38:41;100646.71;;;15.06;49.92
54588;BME280;40484;50.198;19.576;2023-03-25T08:43:42;100648.29;;;15.56;48.44
54588;BME280;40484;50.198;19.576;2023-03-25T08:48:44;100639.10;;;15.54;48.84
54588;BME280;40484;50.198;19.576;2023-03-25T08:53:46;100642.09;;;15.81;46.51
54588;BME280;40484;50.198;19.576;2023-03-25T08:58:47;100646.70;;;15.98;46.61
54588;BME280;40484;50.198;19.576;2023-03-25T09:04:16;100645.73;;;16.11;46.44
54588;BME280;40484;50.198;19.576;2023-03-25T09:09:18;100641.80;;;16.16;45.74
54588;BME280;40484;50.198;19.576;2023-03-25T09:14:20;100642.50;;;16.30;45.55
54588;BME280;40484;50.198;19.576;2023-03-25T09:19:21;100636.47;;;16.05;44.43
54588;BME280;40484;50.198;19.576;2023-03-25T09:24:23;100642.81;;;16.26;43.80
54588;BME280;40484;50.198;19.576;2023-03-25T09:29:25;100636.41;;;16.06;43.15
54588;BME280;40484;50.198;19.576;2023-03-25T09:34:27;100634.69;;;16.48;42.76
54588;BME280;40484;50.198;19.576;2023-03-25T09:39:28;100637.66;;;16.46;43.12
54588;BME280;40484;50.198;19.576;2023-03-25T09:44:48;100616.30;;;16.60;42.36
54588;BME280;40484;50.198;19.576;2023-03-25T09:49:46;100622.37;;;16.68;43.15
54588;BME280;40484;50.198;19.576;2023-03-25T09:54:58;100623.37;;;16.86;42.37
54588;BME280;40484;50.198;19.576;2023-03-25T10:00:00;100624.76;;;16.50;42.35
54588;BME280;40484;50.198;19.576;2023-03-25T10:21:40;100602.06;;;17.02;39.73
54588;BME280;40484;50.198;19.576;2023-03-25T10:27:12;100587.62;;;16.58;40.58
54588;BME280;40484;50.198;19.576;2023-03-25T10:32:31;100578.00;;;16.93;39.35
54588;BME280;40484;50.198;19.576;2023-03-25T10:37:32;100564.62;;;16.98;39.55
54588;BME280;40484;50.198;19.576;2023-03-25T10:48:22;100556.13;;;17.34;37.01
54588;BME280;40484;50.198;19.576;2023-03-25T10:53:27;100550.56;;;17.25;37.31
54588;BME280;40484;50.198;19.576;2023-03-25T10:58:30;100532.18;;;17.08;37.87
54588;BME280;40484;50.198;19.576;2023-03-25T11:03:33;100530.43;;;17.24;37.27
54588;BME280;40484;50.198;19.576;2023-03-25T11:08:35;100521.44;;;17.10;37.95
54588;BME280;40484;50.198;19.576;2023-03-25T11:13:37;100539.66;;;16.90;39.07
54588;BME280;40484;50.198;19.576;2023-03-25T11:18:39;100591.11;;;16.53;44.33
54588;BME280;40484;50.198;19.576;2023-03-25T11:23:47;100604.38;;;14.47;51.47
54588;BME280;40484;50.198;19.576;2023-03-25T11:28:54;100612.80;;;13.61;54.97
54588;BME280;40484;50.198;19.576;2023-03-25T11:39:42;100582.30;;;13.73;55.10
54588;BME280;40484;50.198;19.576;2023-03-25T11:44:52;100566.09;;;14.16;54.33
54588;BME280;40484;50.198;19.576;2023-03-25T11:49:54;100560.38;;;14.72;54.09
54588;BME280;40484;50.198;19.576;2023-03-25T11:54:56;100564.91;;;14.85;54.31
54588;BME280;40484;50.198;19.576;2023-03-25T12:00:19;100555.88;;;14.86;53.77
54588;BME280;40484;50.198;19.576;2023-03-25T12:05:18;100555.75;;;14.93;53.15
54588;BME280;40484;50.198;19.576;2023-03-25T12:21:02;100545.59;;;15.66;50.05
54588;BME280;40484;50.198;19.576;2023-03-25T12:26:09;100534.87;;;15.86;50.50
54588;BME280;40484;50.198;19.576;2023-03-25T12:31:55;100531.70;;;15.87;49.18
54588;BME280;40484;50.198;19.576;2023-03-25T12:37:18;100520.10;;;15.90;48.56
54588;BME280;40484;50.198;19.576;2023-03-25T12:42:29;100517.13;;;15.83;47.27
54588;BME280;40484;50.198;19.576;2023-03-25T12:47:38;100531.43;;;15.89;48.23
54588;BME280;40484;50.198;19.576;2023-03-25T13:04:04;100520.08;;;16.50;48.39
54588;BME280;40484;50.198;19.576;2023-03-25T13:09:20;100513.92;;;16.38;46.39
54588;BME280;40484;50.198;19.576;2023-03-25T13:14:46;100507.20;;;16.60;43.99
54588;BME280;40484;50.198;19.576;2023-03-25T13:19:43;100508.66;;;16.39;42.46
54588;BME280;40484;50.198;19.576;2023-03-25T13:24:51;100514.69;;;16.40;42.57
54588;BME280;40484;50.198;19.576;2023-03-25T13:29:54;100528.55;;;16.25;42.40
54588;BME280;40484;50.198;19.576;2023-03-25T13:34:59;100543.23;;;15.61;46.29
54588;BME280;40484;50.198;19.576;2023-03-25T13:45:15;100548.76;;;14.37;50.61
54588;BME280;40484;50.198;19.576;2023-03-25T13:50:40;100534.16;;;15.03;49.49
54588;BME280;40484;50.198;19.576;2023-03-25T13:55:44;100539.77;;;15.14;50.72
54588;BME280;40484;50.198;19.576;2023-03-25T14:16:32;100506.55;;;14.92;47.54
54588;BME280;40484;50.198;19.576;2023-03-25T14:26:48;100505.37;;;15.51;45.23
54588;BME280;40484;50.198;19.576;2023-03-25T14:37:35;100505.87;;;16.05;43.63
54588;BME280;40484;50.198;19.576;2023-03-25T14:42:42;100499.84;;;16.39;43.10
54588;BME280;40484;50.198;19.576;2023-03-25T14:47:51;100503.45;;;16.45;42.13
54588;BME280;40484;50.198;19.576;2023-03-25T14:53:00;100506.52;;;16.48;41.64
54588;BME280;40484;50.198;19.576;2023-03-25T15:03:17;100495.22;;;15.80;39.39
54588;BME280;40484;50.198;19.576;2023-03-25T15:08:23;100508.19;;;15.89;40.34
54588;BME280;40484;50.198;19.576;2023-03-25T15:13:26;100507.97;;;15.39;38.44
54588;BME280;40484;50.198;19.576;2023-03-25T15:55:53;100535.91;;;14.62;39.21
54588;BME280;40484;50.198;19.576;2023-03-25T16:00:56;100520.69;;;14.69;39.21
54588;BME280;40484;50.198;19.576;2023-03-25T16:06:00;100533.32;;;14.45;39.93
54588;BME280;40484;50.198;19.576;2023-03-25T16:16:46;100546.70;;;14.85;39.98
54588;BME280;40484;50.198;19.576;2023-03-25T16:21:49;100534.80;;;15.11;39.41
54588;BME280;40484;50.198;19.576;2023-03-25T16:26:51;100536.88;;;15.20;39.19
54588;BME280;40484;50.198;19.576;2023-03-25T16:36:58;100573.98;;;14.62;41.72
54588;BME280;40484;50.198;19.576;2023-03-25T16:42:04;100573.90;;;14.56;42.64
54588;BME280;40484;50.198;19.576;2023-03-25T16:47:10;100580.17;;;14.56;42.66
54588;BME280;40484;50.198;19.576;2023-03-25T16:52:13;100573.98;;;14.52;43.02
54588;BME280;40484;50.198;19.576;2023-03-25T16:57:18;100581.23;;;14.64;42.25
54588;BME280;40484;50.198;19.576;2023-03-25T17:02:29;100583.66;;;14.69;42.31
54588;BME280;40484;50.198;19.576;2023-03-25T17:07:32;100614.71;;;14.32;43.58
54588;BME280;40484;50.198;19.576;2023-03-25T17:12:33;100593.09;;;13.67;44.77
54588;BME280;40484;50.198;19.576;2023-03-25T17:17:45;100593.37;;;13.98;45.22
54588;BME280;40484;50.198;19.576;2023-03-25T17:22:57;100591.84;;;14.01;46.30
54588;BME280;40484;50.198;19.576;2023-03-25T17:28:35;100592.02;;;14.16;45.96
54588;BME280;40484;50.198;19.576;2023-03-25T17:33:39;100596.14;;;13.83;47.05
54588;BME280;40484;50.198;19.576;2023-03-25T17:38:43;100600.57;;;13.68;47.55
54588;BME280;40484;50.198;19.576;2023-03-25T17:43:50;100595.59;;;13.53;47.95
54588;BME280;40484;50.198;19.576;2023-03-25T17:48:53;100603.09;;;13.40;48.77
54588;BME280;40484;50.198;19.576;2023-03-25T17:53:57;100605.77;;;13.43;48.79
54588;BME280;40484;50.198;19.576;2023-03-25T17:59:00;100602.72;;;13.21;48.83
54588;BME280;40484;50.198;19.576;2023-03-25T18:04:02;100597.38;;;13.31;49.07
54588;BME280;40484;50.198;19.576;2023-03-25T18:09:21;100601.29;;;13.35;48.79
54588;BME280;40484;50.198;19.576;2023-03-25T18:14:21;100604.35;;;13.41;48.90
54588;BME280;40484;50.198;19.576;2023-03-25T18:19:26;100607.75;;;13.88;48.01
54588;BME280;40484;50.198;19.576;2023-03-25T18:24:27;100599.49;;;14.18;47.59
54588;BME280;40484;50.198;19.576;2023-03-25T18:29:29;100601.47;;;14.45;47.16
54588;BME280;40484;50.198;19.576;2023-03-25T18:34:31;100601.16;;;14.53;46.72
54588;BME280;40484;50.198;19.576;2023-03-25T18:39:57;100597.73;;;14.57;46.39
54588;BME280;40484;50.198;19.576;2023-03-25T18:44:59;100600.75;;;14.49;46.25
54588;BME280;40484;50.198;19.576;2023-03-25T18:50:00;100600.97;;;14.38;46.19
54588;BME280;40484;50.198;19.576;2023-03-25T18:55:02;100594.49;;;14.27;46.01
54588;BME280;40484;50.198;19.576;2023-03-25T19:00:35;100596.94;;;14.30;45.83
54588;BME280;40484;50.198;19.576;2023-03-25T19:05:37;100605.18;;;14.16;45.98
54588;BME280;40484;50.198;19.576;2023-03-25T19:10:38;100610.89;;;13.99;46.37
54588;BME280;40484;50.198;19.576;2023-03-25T19:15:39;100605.65;;;13.89;46.54
54588;BME280;40484;50.198;19.576;2023-03-25T19:20:43;100609.50;;;13.70;46.94
54588;BME280;40484;50.198;19.576;2023-03-25T19:25:48;100601.56;;;13.44;47.46
54588;BME280;40484;50.198;19.576;2023-03-25T19:30:50;100597.35;;;13.47;47.45
54588;BME280;40484;50.198;19.576;2023-03-25T19:35:54;100594.70;;;13.44;47.30
54588;BME280;40484;50.198;19.576;2023-03-25T19:41:04;100600.09;;;13.17;47.49
54588;BME280;40484;50.198;19.576;2023-03-25T19:46:05;100597.24;;;13.10;47.24
54588;BME280;40484;50.198;19.576;2023-03-25T19:51:07;100589.97;;;12.62;47.80
54588;BME280;40484;50.198;19.576;2023-03-25T19:56:08;100597.75;;;12.72;47.25
54588;BME280;40484;50.198;19.576;2023-03-25T20:01:12;100602.89;;;12.78;47.00
54588;BME280;40484;50.198;19.576;2023-03-25T20:06:13;100602.65;;;12.82;46.57
54588;BME280;40484;50.198;19.576;2023-03-25T20:11:15;100602.36;;;12.88;46.29
54588;BME280;40484;50.198;19.576;2023-03-25T20:16:17;100606.94;;;13.03;45.92
54588;BME280;40484;50.198;19.576;2023-03-25T20:21:18;100607.64;;;12.97;45.60
54588;BME280;40484;50.198;19.576;2023-03-25T20:26:46;100612.23;;;13.13;45.22
54588;BME280;40484;50.198;19.576;2023-03-25T20:31:48;100609.20;;;13.22;45.02
54588;BME280;40484;50.198;19.576;2023-03-25T20:36:49;100603.43;;;13.46;44.69
54588;BME280;40484;50.198;19.576;2023-03-25T20:41:51;100605.34;;;13.56;44.44
54588;BME280;40484;50.198;19.576;2023-03-25T20:46:52;100612.73;;;13.37;44.77
54588;BME280;40484;50.198;19.576;2023-03-25T20:51:54;100621.03;;;13.27;45.09
54588;BME280;40484;50.198;19.576;2023-03-25T20:56:57;100611.96;;;13.18;45.22
54588;BME280;40484;50.198;19.576;2023-03-25T21:01:58;100612.27;;;13.27;45.40
54588;BME280;40484;50.198;19.576;2023-03-25T21:07:00;100620.32;;;13.00;45.78
54588;BME280;40484;50.198;19.576;2023-03-25T21:12:02;100619.20;;;13.08;46.01
54588;BME280;40484;50.198;19.576;2023-03-25T21:17:04;100620.62;;;13.10;46.08
54588;BME280;40484;50.198;19.576;2023-03-25T21:22:05;100615.66;;;12.76;46.54
54588;BME280;40484;50.198;19.576;2023-03-25T21:27:07;100618.15;;;12.58;46.74
54588;BME280;40484;50.198;19.576;2023-03-25T21:32:08;100616.15;;;12.52;46.59
54588;BME280;40484;50.198;19.576;2023-03-25T21:37:12;100617.02;;;12.47;46.58
54588;BME280;40484;50.198;19.576;2023-03-25T21:42:13;100626.50;;;12.39;46.93
54588;BME280;40484;50.198;19.576;2023-03-25T21:47:15;100634.02;;;12.18;47.25
54588;BME280;40484;50.198;19.576;2023-03-25T21:52:17;100654.65;;;12.17;47.37
54588;BME280;40484;50.198;19.576;2023-03-25T21:57:23;100658.93;;;12.05;47.79
54588;BME280;40484;50.198;19.576;2023-03-25T22:02:30;100676.66;;;12.01;47.91
54588;BME280;40484;50.198;19.576;2023-03-25T22:07:59;100680.40;;;11.70;47.98
54588;BME280;40484;50.198;19.576;2023-03-25T22:13:08;100687.62;;;11.53;48.73
54588;BME280;40484;50.198;19.576;2023-03-25T22:18:12;100709.09;;;11.42;48.85
54588;BME280;40484;50.198;19.576;2023-03-25T22:23:15;100685.06;;;11.24;48.91
54588;BME280;40484;50.198;19.576;2023-03-25T22:28:21;100674.51;;;11.14;49.03
54588;BME280;40484;50.198;19.576;2023-03-25T22:33:24;100675.62;;;11.00;49.65
54588;BME280;40484;50.198;19.576;2023-03-25T22:38:31;100671.74;;;10.84;50.01
54588;BME280;40484;50.198;19.576;2023-03-25T22:44:11;100669.32;;;11.08;50.29
